Time;durP1;ratioP1;P1;durP2;ratioP2;P2;SDS_P1;SDS_P2;PMS_P1;PMS_P2;Temp;Humidity;BMP_temperature;BMP_pressure;BME280_temperature;BME280_humidity;BME280_pressure;Samples;Min_cycle;Max_cycle;Signal;HPM_P1;HPM_P2
2023/06/21 00:02:07;;;;;;;17.30;15.10;;;;;;;17.16;68.51;97213.81;104656;1263;97250;-83
2023/06/21 00:04:36;;;;;;;16.70;14.70;;;;;;;17.14;68.44;97211.08;105148;1264;97142;-83
2023/06/21 00:07:23;;;;;;;20.80;15.90;;;;;;;17.06;68.50;97210.46;104922;1265;103014;-83
2023/06/21 00:09:57;;;;;;;16.90;15.10;;;;;;;16.92;68.55;97209.34;104574;1263;100268;-83
2023/06/21 00:12:30;;;;;;;18.40;15.70;;;;;;;16.87;68.79;97214.13;104632;1264;100650;-83
2023/06/21 00:14:58;;;;;;;17.80;16.00;;;;;;;16.87;68.95;97218.45;104494;1270;96901;-83
2023/06/21 00:20:10;;;;;;;16.90;15.20;;;;;;;16.80;69.12;97221.64;104565;1272;100980;-83
2023/06/21 00:22:55;;;;;;;18.40;15.00;;;;;;;16.78;69.09;97224.19;104256;1268;100310;-83
2023/06/21 00:25:40;;;;;;;15.90;14.30;;;;;;;16.75;69.17;97224.80;104156;1273;109963;-83
2023/06/21 00:28:10;;;;;;;16.70;15.00;;;;;;;16.74;69.40;97230.88;104266;1276;97216;-83
2023/06/21 00:30:46;;;;;;;16.80;15.10;;;;;;;16.70;69.44;97239.40;104683;1273;97225;-84
2023/06/21 00:33:18;;;;;;;20.90;16.10;;;;;;;16.68;69.47;97247.97;104827;1263;103032;-83
2023/06/21 00:35:45;;;;;;;15.80;14.20;;;;;;;16.64;69.56;97248.69;104868;1262;103272;-83
2023/06/21 00:38:16;;;;;;;16.80;15.00;;;;;;;16.59;69.60;97247.95;104242;1267;973342;-83
2023/06/21 00:40:49;;;;;;;17.00;15.30;;;;;;;16.57;69.67;97244.97;104893;1267;96839;-83
2023/06/21 00:46:04;;;;;;;17.80;15.00;;;;;;;16.49;69.66;97241.77;104529;1272;103177;-84
2023/06/21 00:51:57;;;;;;;19.50;15.10;;;;;;;16.39;69.96;97245.23;104099;1274;99009;-83
2023/06/21 00:54:42;;;;;;;17.10;15.30;;;;;;;16.35;69.94;97243.70;103909;1280;97587;-83
2023/06/21 00:57:18;;;;;;;17.30;15.10;;;;;;;16.30;70.04;97246.30;103988;1283;97005;-84
2023/06/21 00:59:46;;;;;;;17.00;15.30;;;;;;;16.20;70.23;97246.50;104541;1270;101243;-83
2023/06/21 01:02:14;;;;;;;21.40;16.40;;;;;;;16.15;70.48;97244.91;104342;1270;100349;-83
2023/06/21 01:04:49;;;;;;;18.40;16.50;;;;;;;16.09;70.53;97243.40;103984;1279;100705;-83
2023/06/21 01:07:53;;;;;;;19.10;16.60;;;;;;;16.03;70.72;97244.90;104027;1274;96666;-83
2023/06/21 01:10:51;;;;;;;17.40;15.60;;;;;;;16.01;71.05;97242.57;103762;1293;96750;-83
2023/06/21 01:13:36;;;;;;;20.60;17.10;;;;;;;15.89;70.97;97238.10;104564;1274;102989;-83
2023/06/21 01:16:18;;;;;;;20.50;17.30;;;;;;;15.80;71.33;97239.10;104409;1267;111867;-84
2023/06/21 01:19:01;;;;;;;18.50;16.50;;;;;;;15.76;71.59;97239.23;104912;1260;99073;-83
2023/06/21 01:21:29;;;;;;;20.20;16.70;;;;;;;15.76;71.81;97236.20;105425;1257;96511;-84
2023/06/21 01:23:59;;;;;;;20.80;16.70;;;;;;;15.80;71.90;97235.40;105467;1262;96997;-83
2023/06/21 01:29:55;;;;;;;18.50;16.40;;;;;;;15.82;71.99;97236.23;105039;1259;100773;-83
2023/06/21 01:32:37;;;;;;;19.70;17.20;;;;;;;15.79;71.98;97233.48;104813;1259;99062;-83
2023/06/21 01:35:20;;;;;;;18.10;16.30;;;;;;;15.80;72.07;97237.69;104847;1270;97119;-84
2023/06/21 01:38:07;;;;;;;18.00;16.10;;;;;;;15.81;72.07;97238.95;105203;1264;96999;-83
2023/06/21 01:40:53;;;;;;;19.40;15.50;;;;;;;15.82;72.12;97244.02;105128;1260;101195;-85
2023/06/21 01:43:30;;;;;;;20.20;15.90;;;;;;;15.81;72.30;97241.90;105038;1270;102150;-84
2023/06/21 01:46:15;;;;;;;18.20;16.30;;;;;;;15.81;72.42;97241.52;104841;1259;101180;-83
2023/06/21 01:48:44;;;;;;;19.00;17.00;;;;;;;15.80;72.43;97237.80;105133;1263;96626;-83
2023/06/21 01:54:16;;;;;;;18.50;16.10;;;;;;;15.79;72.64;97238.66;105061;1259;103195;-84
2023/06/21 01:57:01;;;;;;;20.10;17.40;;;;;;;15.82;72.80;97242.60;104859;1268;102191;-83
2023/06/21 01:59:32;;;;;;;18.00;16.20;;;;;;;15.80;72.74;97241.95;105086;1260;100832;-84
2023/06/21 02:05:06;;;;;;;19.10;17.00;;;;;;;15.82;72.90;97248.75;104901;1262;97159;-84
2023/06/21 02:07:37;;;;;;;18.50;16.50;;;;;;;15.81;72.97;97240.59;104826;1264;102916;-84
2023/06/21 02:10:13;;;;;;;19.20;16.30;;;;;;;15.80;72.92;97239.23;104957;1262;100335;-83
2023/06/21 02:12:46;;;;;;;19.60;15.90;;;;;;;15.83;73.09;97237.17;104878;1265;100775;-84
2023/06/21 02:15:20;;;;;;;;;;;;;;;15.81;73.08;97234.83;104686;1270;96865;-83
2023/06/21 02:23:56;;;;;;;18.50;16.60;;;;;;;15.66;73.42;97231.70;104657;1276;100235;-83
2023/06/21 02:29:11;;;;;;;18.80;16.90;;;;;;;15.60;73.50;97235.33;104870;1260;96989;-84
2023/06/21 02:31:39;;;;;;;18.60;16.70;;;;;;;15.59;73.63;97230.37;105199;1264;97714;-84
2023/06/21 02:34:07;;;;;;;20.10;17.00;;;;;;;15.62;73.66;97222.42;105154;1261;103103;-84
2023/06/21 02:36:42;;;;;;;21.10;17.00;;;;;;;15.65;73.79;97217.04;105090;1263;100023;-83
2023/06/21 02:39:19;;;;;;;19.30;17.30;;;;;;;15.65;73.54;97213.83;104962;1265;100788;-84
2023/06/21 02:41:47;;;;;;;21.20;17.10;;;;;;;15.66;73.76;97210.20;104887;1265;96788;-84
2023/06/21 02:44:20;;;;;;;21.00;16.80;;;;;;;15.70;73.91;97214.60;104917;1266;96473;-84
2023/06/21 02:46:58;;;;;;;19.60;17.00;;;;;;;15.72;73.95;97220.83;104833;1260;103261;-84
2023/06/21 02:49:44;;;;;;;19.00;17.00;;;;;;;15.74;73.82;97224.89;104482;1267;101699;-83
2023/06/21 02:55:07;;;;;;;19.10;16.80;;;;;;;15.74;73.90;97224.58;104420;1273;97776;-83
2023/06/21 03:00:41;;;;;;;;;;;;;;;;;;;;;
2023/06/21 03:03:14;;;;;;;18.00;15.70;;;;;;;15.83;74.05;97235.86;104212;1287;102248;-84
2023/06/21 03:05:44;;;;;;;19.40;16.80;;;;;;;15.84;74.08;97238.02;104594;1271;99004;-85
2023/06/21 03:08:15;;;;;;;19.60;16.90;;;;;;;15.87;74.17;97243.98;104492;1270;96644;-84
2023/06/21 03:10:59;;;;;;;18.70;16.20;;;;;;;15.88;74.25;97249.07;104594;1270;97447;-84
2023/06/21 03:13:46;;;;;;;22.40;18.10;;;;;;;15.88;74.37;97253.09;104804;1270;103661;-84
2023/06/21 03:16:14;;;;;;;18.90;17.10;;;;;;;15.87;74.26;97259.30;104514;1273;111116;-83
2023/06/21 03:18:51;;;;;;;;;;;;;;;;;;;;;
2023/06/21 03:21:45;;;;;;;19.30;17.30;;;;;;;15.87;74.43;97255.36;104717;1272;96636;-84
2023/06/21 03:24:17;;;;;;;19.10;17.10;;;;;;;15.87;74.61;97248.17;104890;1262;97729;-83
2023/06/21 03:27:12;;;;;;;20.10;16.80;;;;;;;15.90;74.72;97246.00;105110;1261;100008;-83
2023/06/21 03:29:54;;;;;;;20.20;16.80;;;;;;;15.91;74.72;97248.86;104659;1262;100216;-84
2023/06/21 03:32:38;;;;;;;17.80;16.00;;;;;;;15.91;74.76;97245.36;105134;1261;109119;-84
2023/06/21 03:35:31;;;;;;;18.40;16.50;;;;;;;15.91;74.90;97245.76;104792;1262;97506;-84
2023/06/21 03:38:08;;;;;;;;;;;;;;;;;;;;;
2023/06/21 03:41:15;;;;;;;20.10;16.80;;;;;;;15.88;75.09;97241.98;104424;1267;101657;-84
2023/06/21 03:43:55;;;;;;;18.00;16.20;;;;;;;15.91;75.07;97243.62;104543;1266;100168;-84
2023/06/21 03:49:32;;;;;;;18.80;16.90;;;;;;;16.00;75.23;97252.48;104095;1277;97584;-84
2023/06/21 03:52:05;;;;;;;21.20;19.00;;;;;;;16.04;75.07;97254.60;104264;1275;97877;-84
2023/06/21 03:54:41;;;;;;;20.00;17.40;;;;;;;16.07;74.97;97255.29;104259;1277;109491;-84
2023/06/21 03:57:12;;;;;;;21.80;17.40;;;;;;;16.10;75.05;97259.86;104262;1276;100352;-84
2023/06/21 03:59:49;;;;;;;19.20;17.20;;;;;;;16.14;75.00;97261.50;104228;1275;99533;-84
2023/06/21 04:02:31;;;;;;;19.60;16.60;;;;;;;16.17;75.09;97261.98;104712;1276;96798;-82
2023/06/21 04:05:01;;;;;;;18.50;16.50;;;;;;;16.21;75.10;97260.67;104712;1272;97294;-83
2023/06/21 04:07:49;;;;;;;;;;;;;;;16.25;75.19;97260.94;104777;1270;103116;-83
2023/06/21 04:10:30;;;;;;;18.90;16.90;;;;;;;16.28;75.38;97263.50;105093;1264;102127;-84
2023/06/21 04:13:12;;;;;;;18.40;16.60;;;;;;;16.32;75.34;97265.44;104549;1265;101209;-84
2023/06/21 04:15:50;;;;;;;18.20;15.90;;;;;;;16.37;75.46;97267.70;104770;1270;96593;-84
2023/06/21 04:18:21;;;;;;;19.80;17.50;;;;;;;16.42;75.35;97274.09;104990;1264;97469;-83
2023/06/21 04:20:49;;;;;;;21.30;18.60;;;;;;;16.46;75.35;97276.82;105406;1263;101029;-84
2023/06/21 04:23:26;;;;;;;20.90;17.90;;;;;;;16.50;75.46;97271.10;105479;1253;100294;-84
2023/06/21 04:25:57;;;;;;;20.30;17.80;;;;;;;16.54;75.38;97272.73;105551;1254;98726;-83
2023/06/21 04:28:27;;;;;;;19.80;17.70;;;;;;;16.58;75.54;97275.73;105302;1261;97493;-83
2023/06/21 04:30:58;;;;;;;19.80;17.80;;;;;;;16.62;75.38;97281.15;105552;1258;96381;-83
2023/06/21 04:33:29;;;;;;;20.90;17.90;;;;;;;16.65;75.58;97275.59;105500;1257;102989;-84
2023/06/21 04:36:10;;;;;;;24.00;18.20;;;;;;;16.68;75.67;97271.38;105607;1257;100318;-83
2023/06/21 04:38:48;;;;;;;22.60;18.10;;;;;;;16.71;75.84;97276.30;105462;1267;107632;-83
2023/06/21 04:41:25;;;;;;;22.90;18.20;;;;;;;16.74;75.82;97275.64;105498;1253;96528;-84
2023/06/21 04:43:55;;;;;;;20.30;17.60;;;;;;;16.80;75.78;97277.83;105156;1259;97195;-84
2023/06/21 04:46:40;;;;;;;21.70;17.40;;;;;;;16.85;75.74;97276.88;105205;1258;102816;-84
2023/06/21 04:52:09;;;;;;;23.70;18.00;;;;;;;16.99;75.89;97276.53;104935;1263;98742;-84
2023/06/21 04:54:52;;;;;;;;;;;;;;;;;;;;;
2023/06/21 04:58:08;;;;;;;;;;;;;;;;;;;;;
2023/06/21 05:03:47;;;;;;;25.50;21.60;;;;;;;17.28;76.11;97275.66;103995;1273;101811;-83
2023/06/21 05:06:22;;;;;;;25.30;22.50;;;;;;;17.37;75.72;97277.81;104091;1272;100730;-84
2023/06/21 05:09:38;;;;;;;26.10;22.00;;;;;;;17.47;75.75;97280.59;103829;1273;96707;-84
2023/06/21 05:15:16;;;;;;;24.60;21.10;;;;;;;17.67;75.68;97279.16;103895;1282;102486;-85
2023/06/21 05:17:46;;;;;;;26.60;23.20;;;;;;;17.76;75.80;97278.15;104369;1271;102436;-84
2023/06/21 05:20:29;;;;;;;26.90;22.80;;;;;;;17.85;75.79;97275.34;104463;1270;99036;-84
2023/06/21 05:23:00;;;;;;;26.70;23.00;;;;;;;17.93;75.79;97265.08;104031;1274;97495;-84
2023/06/21 05:25:46;;;;;;;27.90;21.10;;;;;;;18.00;76.06;97259.29;104357;1270;97621;-84
2023/06/21 05:28:14;;;;;;;22.80;20.30;;;;;;;18.10;75.89;97262.52;104352;1276;101146;-85
2023/06/21 05:30:47;;;;;;;20.50;18.40;;;;;;;18.19;75.77;97268.34;104670;1265;100416;-84
2023/06/21 05:39:45;;;;;;;21.40;18.70;;;;;;;18.57;75.49;97263.64;102072;1295;644081;-78
2023/06/21 05:42:19;;;;;;;20.50;18.50;;;;;;;18.63;75.59;97269.65;105074;1260;95825;-78
2023/06/21 05:45:09;;;;;;;23.20;18.60;;;;;;;18.74;75.37;97270.36;104471;1270;96718;-79
2023/06/21 05:47:39;;;;;;;20.50;18.30;;;;;;;18.85;75.22;97268.38;104111;1264;99983;-77
2023/06/21 05:50:06;;;;;;;18.80;16.90;;;;;;;18.95;75.08;97267.11;104027;1274;111119;-77
2023/06/21 05:52:32;;;;;;;25.70;18.00;;;;;;;19.07;75.42;97263.65;104242;1264;161521;-78
2023/06/21 05:54:59;;;;;;;20.10;18.10;;;;;;;19.21;75.42;97264.67;104403;1265;95954;-78
2023/06/21 05:57:26;;;;;;;19.80;17.70;;;;;;;19.33;75.58;97267.05;104521;1265;96158;-78
2023/06/21 06:02:54;;;;;;;22.40;18.20;;;;;;;19.59;75.60;97275.13;104200;1280;99576;-78
2023/06/21 06:05:31;;;;;;;22.30;16.50;;;;;;;19.72;75.41;97276.95;104109;1282;96208;-78
2023/06/21 06:07:57;;;;;;;19.10;16.60;;;;;;;19.84;75.21;97280.90;104278;1271;95929;-78
2023/06/21 06:13:39;;;;;;;17.60;15.80;;;;;;;20.19;75.32;97273.77;103899;1273;109861;-78
2023/06/21 06:16:09;;;;;;;16.70;14.90;;;;;;;20.34;74.81;97270.86;103315;1272;100475;-78
2023/06/21 06:18:40;;;;;;;16.90;14.40;;;;;;;20.51;74.29;97271.48;103930;1282;95826;-77
2023/06/21 06:21:30;;;;;;;16.00;14.30;;;;;;;20.64;73.79;97275.77;103927;1286;96317;-77
2023/06/21 06:23:57;;;;;;;17.10;14.70;;;;;;;20.78;73.04;97270.36;104290;1268;111194;-77
2023/06/21 06:26:45;;;;;;;;;;;;;;;;;;;;;
2023/06/21 06:29:22;;;;;;;17.60;15.10;;;;;;;21.01;71.69;97261.09;103998;1272;100584;-78
2023/06/21 06:34:44;;;;;;;17.10;14.70;;;;;;;21.28;71.24;97256.54;107444;1263;93879;-78
2023/06/21 06:37:23;;;;;;;16.40;14.70;;;;;;;21.45;71.45;97257.86;107669;1267;109721;-79
2023/06/21 06:40:00;;;;;;;17.90;13.90;;;;;;;21.60;71.62;97260.61;107826;1265;101635;-78
2023/06/21 06:42:29;;;;;;;16.60;14.70;;;;;;;21.74;71.75;97262.16;107690;1266;100270;-78
2023/06/21 06:44:58;;;;;;;18.40;14.50;;;;;;;21.87;71.78;97256.29;108075;1259;93719;-79
2023/06/21 06:47:30;;;;;;;16.50;14.30;;;;;;;22.01;71.73;97252.64;108195;1259;94518;-79
2023/06/21 06:53:00;;;;;;;17.40;13.90;;;;;;;22.25;71.05;97248.89;107541;1268;100691;-78
2023/06/21 06:55:58;;;;;;;15.60;13.60;;;;;;;22.41;70.64;97244.34;107120;1270;98725;-78
2023/06/21 06:59:10;;;;;;;18.70;15.00;;;;;;;22.55;70.56;97241.97;107381;1270;94206;-78
2023/06/21 07:01:36;;;;;;;17.70;13.70;;;;;;;22.68;70.26;97240.84;107377;1270;93968;-78
2023/06/21 07:04:03;;;;;;;15.30;13.70;;;;;;;22.79;69.94;97245.36;107416;1270;93682;-78
2023/06/21 07:09:20;;;;;;;14.70;13.30;;;;;;;23.05;69.60;97250.20;107465;1267;100076;-78
2023/06/21 07:11:46;;;;;;;14.50;13.00;;;;;;;23.17;69.57;97248.08;107831;1264;93928;-78
2023/06/21 07:14:21;;;;;;;14.70;13.10;;;;;;;23.28;69.19;97244.29;107882;1263;93705;-78
2023/06/21 07:17:09;;;;;;;15.40;13.20;;;;;;;23.40;68.98;97239.98;107747;1264;101089;-79
2023/06/21 07:19:48;;;;;;;14.60;13.20;;;;;;;23.51;68.73;97238.80;107900;1263;101788;-78
2023/06/21 07:25:10;;;;;;;14.50;13.00;;;;;;;23.76;67.59;97236.10;107641;1267;94735;-77
2023/06/21 07:27:36;;;;;;;14.70;12.80;;;;;;;23.86;67.77;97236.22;107697;1267;94098;-76
2023/06/21 07:30:14;;;;;;;19.50;13.50;;;;;;;23.95;67.79;97230.77;107727;1267;101027;-76
2023/06/21 07:32:43;;;;;;;14.70;13.20;;;;;;;24.06;67.65;97233.08;107729;1266;101673;-77
2023/06/21 07:35:15;;;;;;;15.90;12.90;;;;;;;24.16;67.58;97237.80;107703;1262;100017;-76
2023/06/21 07:37:56;;;;;;;14.50;12.90;;;;;;;24.27;67.45;97233.60;107295;1268;94024;-77
2023/06/21 07:40:25;;;;;;;15.30;13.10;;;;;;;24.40;67.12;97229.66;107605;1268;93957;-75
2023/06/21 07:42:54;;;;;;;15.30;13.70;;;;;;;24.54;66.82;97225.37;107327;1268;101154;-76
2023/06/21 07:45:55;;;;;;;14.90;12.80;;;;;;;24.69;66.28;97220.10;107559;1268;94440;-76
2023/06/21 07:48:40;;;;;;;14.00;12.00;;;;;;;24.85;65.52;97221.23;106849;1276;98866;-76
2023/06/21 07:54:01;;;;;;;15.10;12.10;;;;;;;25.18;65.19;97214.91;107114;1272;93789;-76
2023/06/21 07:56:33;;;;;;;13.60;12.20;;;;;;;25.37;64.58;97216.69;107536;1267;93643;-76
2023/06/21 07:59:46;;;;;;;12.80;11.70;;;;;;;25.59;63.95;97211.39;107311;1271;101664;-76
2023/06/21 08:02:17;;;;;;;14.80;11.40;;;;;;;25.85;62.96;97212.55;107173;1273;99002;-76
2023/06/21 08:04:52;;;;;;;13.70;10.90;;;;;;;26.05;62.05;97212.27;106856;1270;94368;-75
2023/06/21 08:07:18;;;;;;;11.70;10.60;;;;;;;26.30;61.80;97213.13;107436;1270;93812;-76
2023/06/21 08:09:45;;;;;;;11.20;10.20;;;;;;;26.71;61.04;97224.00;107784;1263;94295;-77
2023/06/21 08:12:14;;;;;;;13.30;11.00;;;;;;;27.20;59.98;97227.02;107856;1263;94623;-76
2023/06/21 08:14:43;;;;;;;13.90;11.40;;;;;;;27.73;59.75;97223.45;107892;1263;93817;-76
2023/06/21 08:17:12;;;;;;;15.00;11.20;;;;;;;28.34;59.25;97220.46;107651;1267;94537;-76
2023/06/21 08:19:44;;;;;;;13.90;10.30;;;;;;;28.76;57.51;97219.13;107504;1267;93983;-76
2023/06/21 08:22:26;;;;;;;11.20;10.10;;;;;;;29.29;56.58;97229.00;107567;1267;99980;-76
2023/06/21 08:25:02;;;;;;;10.90;9.10;;;;;;;29.73;55.56;97230.95;107779;1259;94091;-76
2023/06/21 08:27:33;;;;;;;12.60;9.00;;;;;;;30.07;54.11;97228.13;108173;1258;100249;-77
2023/06/21 08:32:44;;;;;;;13.40;10.20;;;;;;;30.71;52.36;97227.88;108196;1258;93868;-77
2023/06/21 08:35:13;;;;;;;10.50;8.90;;;;;;;30.85;51.00;97226.29;108292;1254;94143;-77
2023/06/21 08:37:40;;;;;;;11.00;9.30;;;;;;;31.00;49.65;97223.98;108546;1254;100284;-77
2023/06/21 08:40:27;;;;;;;10.00;9.00;;;;;;;31.16;48.49;97220.16;108371;1255;100116;-76
2023/06/21 08:42:55;;;;;;;12.30;9.20;;;;;;;31.28;48.51;97216.81;108203;1259;93833;-77
2023/06/21 08:45:22;;;;;;;10.30;8.80;;;;;;;31.43;47.88;97221.25;108204;1254;93927;-76
2023/06/21 08:47:52;;;;;;;9.90;8.90;;;;;;;31.40;47.16;97223.00;108250;1257;94642;-76
2023/06/21 08:50:22;;;;;;;9.60;8.80;;;;;;;31.33;46.73;97225.40;108478;1255;101256;-76
2023/06/21 08:53:06;;;;;;;11.00;9.60;;;;;;;31.29;45.82;97229.27;108165;1257;100058;-76
2023/06/21 08:55:50;;;;;;;10.00;9.10;;;;;;;31.32;45.42;97232.21;108258;1256;93940;-76
2023/06/21 08:58:18;;;;;;;9.70;8.80;;;;;;;31.53;44.77;97235.91;108211;1255;93933;-76
2023/06/21 09:00:54;;;;;;;10.20;9.00;;;;;;;31.75;45.26;97237.50;108522;1254;101084;-76
2023/06/21 09:04:07;;;;;;;10.20;8.60;;;;;;;31.97;44.82;97237.91;108176;1254;102278;-76
2023/06/21 09:06:42;;;;;;;19.10;15.00;;;;;;;32.24;44.34;97229.53;108631;1250;107348;-75
2023/06/21 09:09:14;;;;;;;135.20;111.70;;;;;;;32.52;43.88;97225.16;108406;1249;93814;-77
2023/06/21 09:11:45;;;;;;;;;;;;;;;32.82;43.22;97220.23;108443;1251;94193;-76
2023/06/21 09:14:32;;;;;;;;;;;;;;;;;;;;;
2023/06/21 09:19:48;;;;;;;13.20;10.90;;;;;;;33.78;42.19;97211.29;108323;1256;100369;-75
2023/06/21 09:22:14;;;;;;;12.60;11.30;;;;;;;34.12;41.50;97211.10;108442;1255;94300;-76
2023/06/21 09:24:41;;;;;;;11.70;9.90;;;;;;;34.31;40.07;97215.73;108499;1254;94126;-76
2023/06/21 09:27:10;;;;;;;10.90;9.80;;;;;;;34.46;39.82;97215.89;108314;1254;94177;-77
2023/06/21 09:29:53;;;;;;;9.50;8.50;;;;;;;34.70;39.62;97217.85;108487;1255;93732;-76
2023/06/21 09:32:25;;;;;;;9.90;8.40;;;;;;;34.85;38.16;97222.63;108468;1254;100086;-76
2023/06/21 09:35:15;;;;;;;8.90;8.00;;;;;;;34.73;37.70;97221.27;108462;1256;94683;-76
2023/06/21 09:37:53;;;;;;;8.60;7.80;;;;;;;35.05;38.59;97218.88;108260;1255;93958;-76
2023/06/21 09:40:22;;;;;;;8.40;7.70;;;;;;;35.40;38.16;97218.25;108513;1255;100835;-76
2023/06/21 09:42:48;;;;;;;9.50;7.80;;;;;;;35.69;37.48;97218.77;108477;1256;100972;-76
2023/06/21 09:45:28;;;;;;;12.50;8.60;;;;;;;35.87;36.75;97221.02;108437;1255;99878;-76
2023/06/21 09:48:10;;;;;;;9.20;8.30;;;;;;;35.88;35.91;97223.45;108228;1259;94224;-77
2023/06/21 09:50:55;;;;;;;9.70;8.30;;;;;;;35.66;35.67;97220.73;108468;1256;93932;-76
2023/06/21 09:53:33;;;;;;;10.00;8.30;;;;;;;35.27;35.78;97226.38;108279;1256;100821;-77
2023/06/21 09:56:20;;;;;;;8.50;7.70;;;;;;;34.71;36.27;97222.29;108534;1251;100120;-77
2023/06/21 09:58:48;;;;;;;8.90;8.10;;;;;;;34.39;36.94;97217.75;108782;1249;94741;-77
2023/06/21 10:01:48;;;;;;;9.50;8.70;;;;;;;34.18;37.03;97221.09;108859;1250;94534;-77
2023/06/21 10:07:14;;;;;;;;;;;;;;;;;;;;;
2023/06/21 10:09:48;;;;;;;10.00;8.80;;;;;;;33.54;36.97;97222.40;108863;1249;103114;-78
2023/06/21 10:15:06;;;;;;;10.00;8.70;;;;;;;33.14;37.56;97217.44;108558;1249;94398;-77
2023/06/21 10:17:43;;;;;;;12.60;8.50;;;;;;;33.03;38.00;97216.36;108907;1249;94294;-77
2023/06/21 10:20:14;;;;;;;9.10;8.20;;;;;;;32.85;37.55;97218.78;108801;1250;102499;-77
2023/06/21 10:22:46;;;;;;;9.70;8.80;;;;;;;32.70;37.66;97222.40;108648;1251;101812;-77
2023/06/21 10:25:17;;;;;;;11.60;8.30;;;;;;;32.60;38.27;97222.98;108359;1251;99911;-77
2023/06/21 10:28:02;;;;;;;10.30;8.00;;;;;;;32.48;37.89;97216.53;108540;1251;94637;-77
2023/06/21 10:33:39;;;;;;;9.00;8.20;;;;;;;32.21;38.00;97222.42;108451;1250;102192;-77
2023/06/21 10:36:13;;;;;;;9.40;8.50;;;;;;;32.07;38.02;97223.09;108528;1249;101643;-76
2023/06/21 10:41:55;;;;;;;9.80;9.00;;;;;;;31.62;38.10;97221.10;108159;1261;94768;-77
2023/06/21 10:44:29;;;;;;;10.80;9.20;;;;;;;31.39;38.67;97217.14;108179;1256;94497;-77
2023/06/21 10:47:15;;;;;;;9.70;8.90;;;;;;;31.22;39.47;97215.23;108293;1255;101842;-77
2023/06/21 10:49:46;;;;;;;10.90;9.40;;;;;;;31.06;40.08;97216.32;108256;1255;101677;-76
2023/06/21 10:52:35;;;;;;;9.80;8.30;;;;;;;30.90;40.54;97221.05;107982;1259;100150;-77
2023/06/21 10:55:06;;;;;;;10.50;8.50;;;;;;;30.76;41.14;97223.76;107810;1260;94731;-77
2023/06/21 10:57:34;;;;;;;10.80;9.70;;;;;;;30.68;41.70;97229.30;107985;1266;95401;-77
2023/06/21 11:00:35;;;;;;;10.40;9.40;;;;;;;30.65;41.84;97230.63;108192;1259;102374;-78
2023/06/21 11:03:01;;;;;;;9.90;9.10;;;;;;;30.68;41.90;97231.21;108012;1259;101710;-78
2023/06/21 11:05:40;;;;;;;12.50;9.50;;;;;;;30.81;41.38;97233.40;108093;1259;100375;-77
2023/06/21 11:08:15;;;;;;;10.80;9.70;;;;;;;31.00;40.64;97233.58;108132;1259;94343;-77
2023/06/21 11:10:53;;;;;;;10.10;9.20;;;;;;;31.24;40.36;97227.96;108475;1254;94706;-77
2023/06/21 11:13:44;;;;;;;9.80;9.00;;;;;;;31.46;39.90;97223.59;108259;1254;102393;-77
2023/06/21 11:16:20;;;;;;;9.60;8.60;;;;;;;31.53;40.05;97223.30;108495;1254;100516;-77
2023/06/21 11:19:15;;;;;;;;;;;;;;;31.45;40.29;97216.23;108484;1256;100466;-77
2023/06/21 11:21:59;;;;;;;10.50;9.30;;;;;;;31.39;40.35;97205.83;108034;1256;95309;-78
2023/06/21 11:27:13;;;;;;;11.10;9.70;;;;;;;31.56;40.31;97208.75;108016;1257;101061;-78
2023/06/21 11:29:40;;;;;;;9.40;8.50;;;;;;;31.72;40.29;97204.64;108368;1256;94649;-77
2023/06/21 11:32:38;;;;;;;10.20;9.20;;;;;;;31.84;39.96;97203.87;108348;1256;95353;-77
2023/06/21 11:35:13;;;;;;;10.30;9.10;;;;;;;31.93;39.27;97202.76;108184;1256;94582;-77
2023/06/21 11:37:52;;;;;;;9.60;8.60;;;;;;;31.99;38.43;97204.31;108310;1256;94720;-77
2023/06/21 11:40:52;;;;;;;9.20;8.30;;;;;;;32.00;38.23;97205.77;108012;1256;102050;-77
2023/06/21 11:43:24;;;;;;;10.30;8.30;;;;;;;31.90;38.63;97205.65;108332;1257;101690;-76
2023/06/21 11:45:56;;;;;;;11.30;7.30;;;;;;;31.76;38.52;97203.71;108367;1256;94454;-77
2023/06/21 11:48:50;;;;;;;;;;;;;;;;;;;;;
2023/06/21 11:51:17;;;;;;;7.20;6.50;;;;;;;31.34;38.01;97202.10;108099;1256;95135;-76
2023/06/21 11:56:58;;;;;;;7.90;7.20;;;;;;;30.69;38.22;97194.21;108192;1256;110556;-76
2023/06/21 11:59:36;;;;;;;7.70;6.80;;;;;;;30.28;38.62;97191.89;108838;1253;100184;-78
2023/06/21 12:02:34;;;;;;;14.20;7.40;;;;;;;29.93;38.71;97190.94;108813;1249;94621;-80
2023/06/21 12:05:13;;;;;;;11.40;7.40;;;;;;;29.62;38.91;97197.10;108872;1251;94592;-78
2023/06/21 12:07:42;;;;;;;9.50;6.70;;;;;;;29.28;38.89;97202.69;108960;1250;110346;-78
2023/06/21 12:10:11;;;;;;;10.50;6.50;;;;;;;28.98;39.04;97206.56;108565;1249;101444;-77
2023/06/21 12:12:44;;;;;;;7.50;6.80;;;;;;;28.68;39.46;97215.86;108526;1250;100594;-77
2023/06/21 12:15:16;;;;;;;16.90;6.60;;;;;;;28.45;39.95;97241.26;108874;1250;94530;-80
2023/06/21 12:17:43;;;;;;;16.60;8.10;;;;;;;28.25;41.13;97273.16;108870;1249;95054;-77
2023/06/21 12:20:09;;;;;;;15.80;7.40;;;;;;;28.03;42.63;97300.58;108593;1251;94719;-77
2023/06/21 12:22:39;;;;;;;12.10;6.20;;;;;;;27.38;44.54;97331.38;108835;1253;101604;-77
2023/06/21 12:25:11;;;;;;;12.50;6.80;;;;;;;26.52;45.95;97344.39;108857;1250;95046;-78
2023/06/21 12:28:03;;;;;;;;;;;;;;;25.84;47.14;97335.89;108626;1251;94574;-77
2023/06/21 12:31:01;;;;;;;20.20;7.00;;;;;;;25.23;48.61;97340.76;108905;1253;94461;-77
2023/06/21 12:33:40;;;;;;;12.10;8.50;;;;;;;24.83;49.77;97356.59;108599;1250;102495;-74
2023/06/21 12:36:29;;;;;;;17.00;9.80;;;;;;;24.47;50.98;97373.34;108777;1250;101548;-77
2023/06/21 12:39:08;;;;;;;15.90;8.80;;;;;;;24.24;52.09;97391.80;108166;1252;100027;-75
2023/06/21 12:41:35;;;;;;;18.30;9.50;;;;;;;24.04;53.18;97415.73;108874;1251;94313;-74
2023/06/21 12:50:21;;;;;;;19.00;11.30;;;;;;;23.01;57.03;97443.39;108595;1250;100511;-75
2023/06/21 12:53:02;;;;;;;13.90;8.50;;;;;;;22.87;58.27;97439.57;108837;1251;98940;-77
2023/06/21 12:55:53;;;;;;;14.50;8.90;;;;;;;22.83;58.44;97425.90;108884;1249;94466;-78
2023/06/21 12:58:52;;;;;;;14.00;7.90;;;;;;;22.55;59.11;97419.80;108197;1260;95746;-78
2023/06/21 13:01:21;;;;;;;13.80;8.00;;;;;;;22.39;60.08;97418.65;108278;1256;102473;-77
2023/06/21 13:03:48;;;;;;;27.60;13.00;;;;;;;22.42;60.73;97424.41;108112;1256;100245;-77
2023/06/21 13:06:16;;;;;;;12.20;8.20;;;;;;;22.45;61.12;97420.65;108182;1257;107849;-78
2023/06/21 13:08:45;;;;;;;11.20;7.80;;;;;;;22.49;61.71;97413.50;108229;1262;94331;-76
2023/06/21 13:11:14;;;;;;;15.60;8.20;;;;;;;22.54;62.13;97404.06;108235;1257;95087;-75
2023/06/21 13:13:48;;;;;;;11.00;9.00;;;;;;;22.62;62.64;97395.63;108256;1256;94739;-74
2023/06/21 13:16:29;;;;;;;14.40;9.10;;;;;;;22.77;63.28;97385.43;108485;1250;100640;-77
2023/06/21 13:19:16;;;;;;;13.80;8.40;;;;;;;23.02;63.92;97385.52;108778;1251;98318;-76
2023/06/21 13:21:47;;;;;;;16.70;8.10;;;;;;;23.26;64.66;97386.13;108834;1250;95224;-75
2023/06/21 13:24:17;;;;;;;12.20;7.80;;;;;;;23.49;64.10;97384.23;108627;1251;94586;-75
2023/06/21 13:26:46;;;;;;;10.70;7.90;;;;;;;23.62;64.00;97385.61;108531;1251;102389;-75
2023/06/21 13:29:20;;;;;;;11.80;7.50;;;;;;;23.71;64.19;97382.78;108893;1251;101535;-76
2023/06/21 13:31:47;;;;;;;49.30;25.30;;;;;;;23.81;63.74;97379.88;108868;1250;98728;-76
2023/06/21 13:34:26;;;;;;;14.00;8.50;;;;;;;23.85;63.23;97378.17;108852;1249;94437;-77
2023/06/21 13:36:52;;;;;;;8.40;6.80;;;;;;;23.88;62.59;97372.68;108875;1250;95063;-75
2023/06/21 13:39:22;;;;;;;60.40;30.20;;;;;;;23.98;62.68;97373.65;108874;1250;94647;-76
2023/06/21 13:41:49;;;;;;;10.80;7.10;;;;;;;24.15;62.33;97368.15;108855;1250;101677;-77
2023/06/21 13:44:15;;;;;;;123.70;63.70;;;;;;;24.30;62.37;97360.55;108618;1250;94630;-77
2023/06/21 13:50:04;;;;;;;10.40;8.30;;;;;;;24.58;62.73;97347.71;108126;1259;96059;-79